Time;durP1;ratioP1;P1;durP2;ratioP2;P2;SDS_P1;SDS_P2;PMS_P1;PMS_P2;Temp;Humidity;BMP_temperature;BMP_pressure;BME280_temperature;BME280_humidity;BME280_pressure;Samples;Min_cycle;Max_cycle;Signal;HPM_P1;HPM_P2
2023/09/22 00:03:19;;;;;;;;;;;21.30;58.40;;;;;;10366472;28;20401;-47
2023/09/22 00:08:24;;;;;;;;;;;21.30;58.30;;;;;;10363974;28;34398;-44
2023/09/22 00:13:25;;;;;;;;;;;21.30;58.30;;;;;;10365177;28;19934;-45
2023/09/22 00:18:27;;;;;;;;;;;21.30;58.30;;;;;;10340785;28;19934;-45
2023/09/22 00:23:29;;;;;;;;;;;21.30;58.30;;;;;;10351741;28;20389;-46
2023/09/22 00:28:30;;;;;;;;;;;21.30;58.30;;;;;;10363583;28;20421;-43
2023/09/22 00:33:33;;;;;;;;;;;21.20;58.10;;;;;;10351374;28;19940;-46
2023/09/22 00:38:35;;;;;;;;;;;21.20;58.20;;;;;;10370798;28;19934;-44
2023/09/22 00:43:36;;;;;;;;;;;21.20;58.10;;;;;;10349888;28;19934;-43
2023/09/22 00:48:39;;;;;;;;;;;21.20;58.10;;;;;;10350557;28;19969;-46
2023/09/22 00:53:41;;;;;;;;;;;21.20;58.10;;;;;;10349883;28;20023;-45
2023/09/22 00:58:43;;;;;;;;;;;21.20;58.00;;;;;;10363959;28;20507;-43
2023/09/22 01:03:45;;;;;;;;;;;21.20;58.10;;;;;;10349972;28;19934;-43
2023/09/22 01:08:48;;;;;;;;;;;21.20;58.00;;;;;;10360844;28;19933;-45
2023/09/22 01:13:49;;;;;;;;;;;21.20;58.00;;;;;;10347547;28;19933;-44
2023/09/22 01:18:52;;;;;;;;;;;21.20;58.00;;;;;;10348674;28;20000;-45
2023/09/22 01:23:54;;;;;;;;;;;21.10;57.80;;;;;;10360137;28;19941;-47
2023/09/22 01:28:55;;;;;;;;;;;21.20;57.80;;;;;;10335766;28;19934;-44
2023/09/22 01:33:57;;;;;;;;;;;21.10;57.90;;;;;;10345613;28;19941;-45
2023/09/22 01:39:00;;;;;;;;;;;21.10;57.80;;;;;;10350900;28;19941;-44
2023/09/22 01:44:03;;;;;;;;;;;21.10;57.70;;;;;;10347615;28;19988;-45
2023/09/22 01:49:04;;;;;;;;;;;21.10;57.70;;;;;;10343872;28;19934;-45
2023/09/22 01:54:06;;;;;;;;;;;21.10;58.70;;;;;;10362672;28;20121;-45
2023/09/22 01:59:08;;;;;;;;;;;21.10;57.80;;;;;;10347435;28;19934;-45
2023/09/22 02:04:10;;;;;;;;;;;21.10;57.70;;;;;;10356443;28;19934;-44
2023/09/22 02:09:12;;;;;;;;;;;21.10;57.70;;;;;;10358116;28;19934;-47
2023/09/22 02:14:13;;;;;;;;;;;21.10;57.70;;;;;;10361506;28;19934;-46
2023/09/22 02:19:15;;;;;;;;;;;21.10;57.60;;;;;;10363012;28;19941;-45
2023/09/22 02:24:17;;;;;;;;;;;21.10;57.60;;;;;;10354026;28;19934;-44
2023/09/22 02:29:19;;;;;;;;;;;21.10;57.60;;;;;;10360953;28;19933;-45
2023/09/22 02:34:22;;;;;;;;;;;21.10;57.50;;;;;;10360247;28;19977;-52
2023/09/22 02:39:24;;;;;;;;;;;21.10;57.40;;;;;;10372785;28;19956;-43
2023/09/22 02:44:25;;;;;;;;;;;21.20;57.30;;;;;;10383101;28;19934;-45
2023/09/22 02:49:29;;;;;;;;;;;21.20;57.30;;;;;;10360111;28;20162;-45
2023/09/22 02:54:31;;;;;;;;;;;21.20;57.20;;;;;;10366364;28;19988;-46
2023/09/22 02:59:33;;;;;;;;;;;21.10;57.30;;;;;;10376215;28;20064;-46
2023/09/22 03:04:35;;;;;;;;;;;21.20;57.20;;;;;;10359955;28;19964;-46
2023/09/22 03:09:37;;;;;;;;;;;21.10;57.10;;;;;;10363300;28;20126;-47
2023/09/22 03:14:39;;;;;;;;;;;21.10;57.00;;;;;;10355983;28;19941;-46
2023/09/22 03:19:40;;;;;;;;;;;21.10;57.00;;;;;;10358191;28;19941;-46
2023/09/22 03:24:42;;;;;;;;;;;21.10;56.90;;;;;;10377659;28;19960;-45
2023/09/22 03:29:44;;;;;;;;;;;21.10;56.90;;;;;;10378110;28;19934;-44
2023/09/22 03:34:49;;;;;;;;;;;21.10;56.90;;;;;;10364497;28;19933;-46
2023/09/22 03:39:52;;;;;;;;;;;21.10;56.80;;;;;;10352975;28;20071;-43
2023/09/22 03:44:54;;;;;;;;;;;21.10;56.80;;;;;;10352891;28;19934;-44
2023/09/22 03:49:55;;;;;;;;;;;21.10;56.90;;;;;;10347312;28;20401;-45
2023/09/22 03:54:57;;;;;;;;;;;21.10;56.90;;;;;;10348290;28;19933;-46
2023/09/22 03:59:59;;;;;;;;;;;21.10;56.80;;;;;;10350073;28;19940;-47
2023/09/22 04:05:00;;;;;;;;;;;21.10;56.80;;;;;;10347387;28;21024;-44
2023/09/22 04:10:03;;;;;;;;;;;21.10;56.80;;;;;;10344971;28;20349;-44
2023/09/22 04:15:06;;;;;;;;;;;21.00;56.70;;;;;;10358044;28;19941;-45
2023/09/22 04:20:09;;;;;;;;;;;21.10;56.80;;;;;;10346666;28;20489;-45
2023/09/22 04:25:11;;;;;;;;;;;21.00;56.80;;;;;;10351988;28;20027;-44
2023/09/22 04:30:16;;;;;;;;;;;21.00;56.70;;;;;;10349113;28;19933;-46
2023/09/22 04:35:20;;;;;;;;;;;21.00;56.70;;;;;;10360699;28;19934;-45
2023/09/22 04:40:24;;;;;;;;;;;21.00;56.70;;;;;;10361372;28;19934;-45
2023/09/22 04:50:53;;;;;;;;;;;21.00;57.30;;;;;;10699921;22;20707;-47
2023/09/22 04:56:00;;;;;;;;;;;21.00;57.60;;;;;;10353739;28;19934;-43
2023/09/22 05:01:03;;;;;;;;;;;20.90;57.80;;;;;;10378312;28;19981;-45
2023/09/22 05:06:06;;;;;;;;;;;20.90;58.10;;;;;;10375606;28;19934;-48
2023/09/22 05:11:08;;;;;;;;;;;20.90;58.60;;;;;;10388090;28;19979;-47
2023/09/22 05:16:12;;;;;;;;;;;20.90;58.80;;;;;;10383489;28;20076;-52
2023/09/22 05:21:14;;;;;;;;;;;20.90;59.10;;;;;;10388433;28;20312;-45
2023/09/22 05:26:16;;;;;;;;;;;20.90;59.50;;;;;;10396875;28;19933;-46
2023/09/22 05:31:19;;;;;;;;;;;20.90;60.00;;;;;;10391658;28;19933;-47
2023/09/22 05:36:21;;;;;;;;;;;20.90;61.00;;;;;;10385215;28;19933;-43
2023/09/22 05:41:23;;;;;;;;;;;20.90;60.50;;;;;;10388879;28;19965;-47
2023/09/22 05:46:24;;;;;;;;;;;20.90;60.90;;;;;;10389836;28;19937;-42
2023/09/22 05:51:26;;;;;;;;;;;20.90;61.10;;;;;;10386880;28;19940;-42
2023/09/22 05:56:28;;;;;;;;;;;21.00;61.60;;;;;;10388796;28;20131;-44
2023/09/22 06:01:30;;;;;;;;;;;21.00;61.50;;;;;;10406432;28;19934;-44
2023/09/22 06:06:32;;;;;;;;;;;21.10;62.00;;;;;;10391944;28;19939;-42
2023/09/22 06:11:34;;;;;;;;;;;21.10;62.00;;;;;;10394921;28;20047;-43
2023/09/22 06:16:35;;;;;;;;;;;21.10;62.10;;;;;;10390055;28;20507;-43
2023/09/22 06:21:38;;;;;;;;;;;21.10;62.20;;;;;;10374476;28;20319;-42
2023/09/22 06:26:40;;;;;;;;;;;21.10;62.40;;;;;;10387426;28;19940;-42
2023/09/22 06:31:42;;;;;;;;;;;21.10;62.40;;;;;;10401129;28;20384;-40
2023/09/22 06:36:46;;;;;;;;;;;21.10;62.30;;;;;;10395191;28;19934;-44
2023/09/22 06:41:48;;;;;;;;;;;21.10;62.40;;;;;;10384425;28;19933;-44
2023/09/22 06:46:50;;;;;;;;;;;21.10;62.70;;;;;;10384441;28;19964;-41
2023/09/22 06:51:52;;;;;;;;;;;21.10;62.70;;;;;;10385499;28;20308;-43
2023/09/22 06:56:55;;;;;;;;;;;21.10;62.50;;;;;;10385422;28;20392;-43
2023/09/22 07:01:57;;;;;;;;;;;21.00;62.50;;;;;;10384492;28;19933;-40
2023/09/22 07:07:01;;;;;;;;;;;21.00;62.50;;;;;;10384585;28;19933;-41
2023/09/22 07:12:04;;;;;;;;;;;21.00;62.50;;;;;;10385744;28;19990;-42
2023/09/22 07:17:05;;;;;;;;;;;21.00;62.50;;;;;;10386206;28;19973;-41
2023/09/22 07:22:08;;;;;;;;;;;21.00;62.60;;;;;;10385386;28;20020;-46
2023/09/22 07:27:10;;;;;;;;;;;21.00;63.60;;;;;;10385123;28;19933;-51
2023/09/22 07:32:13;;;;;;;;;;;21.00;62.40;;;;;;10400746;28;20380;-41
2023/09/22 07:37:18;;;;;;;;;;;21.00;62.10;;;;;;10397525;28;20317;-41
2023/09/22 07:42:22;;;;;;;;;;;21.00;61.10;;;;;;10386180;28;20594;-41
2023/09/22 07:47:25;;;;;;;;;;;21.00;60.70;;;;;;10385325;28;20396;-41
2023/09/22 07:52:28;;;;;;;;;;;21.00;60.40;;;;;;10384054;28;19972;-44
2023/09/22 07:57:31;;;;;;;;;;;21.00;60.10;;;;;;10381266;28;20093;-42
2023/09/22 08:02:33;;;;;;;;;;;21.10;59.90;;;;;;10399512;28;19940;-42
2023/09/22 08:07:35;;;;;;;;;;;21.00;59.70;;;;;;10385514;28;20865;-42
2023/09/22 08:12:37;;;;;;;;;;;21.00;59.50;;;;;;10384393;28;19933;-40
2023/09/22 08:17:41;;;;;;;;;;;21.00;59.40;;;;;;10385510;28;19933;-44
2023/09/22 08:22:44;;;;;;;;;;;21.00;59.30;;;;;;10380040;28;19940;-42
2023/09/22 08:27:48;;;;;;;;;;;21.00;59.10;;;;;;10380162;28;19934;-42
2023/09/22 08:32:49;;;;;;;;;;;21.00;60.10;;;;;;10383207;28;19933;-43
2023/09/22 08:37:51;;;;;;;;;;;21.00;58.80;;;;;;10381993;28;19933;-41
2023/09/22 08:42:55;;;;;;;;;;;21.00;58.90;;;;;;10384849;28;19934;-41
2023/09/22 08:47:57;;;;;;;;;;;21.00;58.60;;;;;;10395476;28;20044;-41
2023/09/22 08:52:59;;;;;;;;;;;21.00;58.50;;;;;;10383361;28;20573;-40
2023/09/22 08:58:01;;;;;;;;;;;21.00;58.40;;;;;;10397974;28;19934;-41
2023/09/22 09:03:09;;;;;;;;;;;21.00;58.30;;;;;;10384694;28;19933;-43
2023/09/22 09:08:13;;;;;;;;;;;21.00;58.00;;;;;;10370445;28;20307;-43
2023/09/22 09:13:27;;;;;;;;;;;21.00;58.50;;;;;;10398944;28;19940;-44
2023/09/22 09:18:29;;;;;;;;;;;21.00;58.00;;;;;;10389675;28;19933;-46
2023/09/22 09:23:32;;;;;;;;;;;21.00;58.10;;;;;;10391290;28;20262;-42
2023/09/22 09:28:39;;;;;;;;;;;21.00;57.80;;;;;;10391616;28;20105;-42
2023/09/22 09:33:47;;;;;;;;;;;21.00;57.80;;;;;;10381033;28;19933;-43
2023/09/22 09:38:49;;;;;;;;;;;21.10;57.70;;;;;;10389584;28;19941;-43
2023/09/22 09:43:51;;;;;;;;;;;21.20;58.00;;;;;;10390040;28;20423;-43
2023/09/22 09:48:55;;;;;;;;;;;21.30;57.80;;;;;;10390850;28;19933;-43
2023/09/22 09:54:03;;;;;;;;;;;21.40;57.80;;;;;;10390617;28;19940;-43
2023/09/22 09:59:05;;;;;;;;;;;21.40;57.70;;;;;;10397852;28;20125;-45
2023/09/22 10:04:09;;;;;;;;;;;21.40;57.80;;;;;;10390516;28;19940;-43
2023/09/22 10:09:12;;;;;;;;;;;21.30;57.50;;;;;;10388482;28;20080;-46
2023/09/22 10:14:32;;;;;;;;;;;21.30;57.30;;;;;;10389639;28;20293;-43
2023/09/22 10:19:41;;;;;;;;;;;21.40;57.60;;;;;;10389770;28;20509;-45
2023/09/22 10:24:43;;;;;;;;;;;21.40;57.40;;;;;;10389632;28;19934;-47
2023/09/22 10:29:51;;;;;;;;;;;21.50;57.60;;;;;;10390917;28;19937;-44
2023/09/22 10:34:54;;;;;;;;;;;21.50;57.40;;;;;;10388816;28;19933;-48
2023/09/22 10:39:57;;;;;;;;;;;21.50;57.20;;;;;;10379221;28;20439;-43
2023/09/22 10:45:00;;;;;;;;;;;21.50;57.20;;;;;;10394129;28;20120;-44
2023/09/22 10:50:14;;;;;;;;;;;21.50;58.20;;;;;;10394809;28;20392;-43
2023/09/22 10:55:36;;;;;;;;;;;21.60;58.10;;;;;;10411400;28;19933;-42
2023/09/22 11:00:39;;;;;;;;;;;21.60;57.00;;;;;;10390309;28;20016;-43
2023/09/22 11:05:42;;;;;;;;;;;21.60;56.80;;;;;;10392532;28;20102;-43
2023/09/22 11:10:48;;;;;;;;;;;21.60;56.80;;;;;;10394038;28;20315;-42
2023/09/22 11:15:51;;;;;;;;;;;21.70;56.80;;;;;;10396472;28;19934;-42
2023/09/22 11:20:57;;;;;;;;;;;21.60;56.80;;;;;;10393949;28;19934;-43
2023/09/22 11:25:59;;;;;;;;;;;21.60;56.80;;;;;;10392255;28;19934;-44
2023/09/22 11:31:14;;;;;;;;;;;21.60;56.70;;;;;;10394463;28;19939;-43
2023/09/22 11:36:18;;;;;;;;;;;21.60;56.70;;;;;;10393103;28;20293;-47
2023/09/22 11:41:21;;;;;;;;;;;21.60;56.60;;;;;;10394480;28;19933;-43
2023/09/22 11:46:22;;;;;;;;;;;21.60;56.60;;;;;;10407729;28;19933;-43
2023/09/22 11:51:40;;;;;;;;;;;21.60;56.80;;;;;;10394269;28;19940;-58
2023/09/22 11:56:42;;;;;;;;;;;21.50;56.60;;;;;;10373771;28;19944;-43
2023/09/22 12:01:45;;;;;;;;;;;21.50;56.70;;;;;;10392103;28;19933;-43
2023/09/22 12:06:48;;;;;;;;;;;21.50;56.60;;;;;;10386681;28;19937;-42
2023/09/22 12:11:51;;;;;;;;;;;21.50;56.60;;;;;;10377282;28;19934;-45
2023/09/22 12:16:52;;;;;;;;;;;21.50;56.70;;;;;;10382716;28;20080;-43
2023/09/22 12:21:56;;;;;;;;;;;21.50;57.10;;;;;;10391103;28;19933;-47
2023/09/22 12:26:57;;;;;;;;;;;21.60;57.10;;;;;;10383764;28;19940;-44
2023/09/22 12:32:00;;;;;;;;;;;21.60;57.30;;;;;;10391458;28;20094;-46
2023/09/22 12:37:02;;;;;;;;;;;21.60;57.50;;;;;;10383814;28;19941;-43
2023/09/22 12:42:04;;;;;;;;;;;21.60;57.70;;;;;;10372327;28;19965;-45
2023/09/22 12:47:08;;;;;;;;;;;21.60;57.70;;;;;;10403235;28;19933;-45
2023/09/22 12:52:10;;;;;;;;;;;21.50;57.90;;;;;;10392412;28;19940;-43
2023/09/22 12:57:12;;;;;;;;;;;21.50;58.40;;;;;;10385971;28;19934;-44
2023/09/22 13:02:14;;;;;;;;;;;21.50;58.60;;;;;;10391378;28;19940;-45
2023/09/22 13:07:18;;;;;;;;;;;21.50;58.90;;;;;;10390504;28;20350;-43
2023/09/22 13:12:20;;;;;;;;;;;21.40;59.20;;;;;;10384742;28;19965;-42
2023/09/22 13:17:21;;;;;;;;;;;21.50;59.60;;;;;;10391052;28;19934;-42
2023/09/22 13:22:23;;;;;;;;;;;21.40;59.40;;;;;;10383777;28;20442;-42
2023/09/22 13:27:25;;;;;;;;;;;21.50;60.90;;;;;;10389719;28;19981;-44
2023/09/22 13:32:27;;;;;;;;;;;21.50;61.10;;;;;;10397986;28;19933;-42
2023/09/22 13:37:29;;;;;;;;;;;21.60;61.10;;;;;;10387323;28;19940;-47
2023/09/22 13:42:30;;;;;;;;;;;21.60;60.70;;;;;;10380742;28;19933;-45
2023/09/22 13:47:32;;;;;;;;;;;21.70;60.40;;;;;;10372670;28;20004;-49
2023/09/22 13:52:34;;;;;;;;;;;21.70;60.00;;;;;;10396994;28;19940;-50
2023/09/22 13:57:38;;;;;;;;;;;21.70;60.60;;;;;;10415768;28;20902;-45
2023/09/22 14:02:41;;;;;;;;;;;21.70;59.50;;;;;;10391727;28;20321;-46
2023/09/22 14:07:43;;;;;;;;;;;21.70;59.20;;;;;;10390940;28;20008;-45
2023/09/22 14:12:45;;;;;;;;;;;21.70;59.90;;;;;;10400048;28;20403;-43
2023/09/22 14:17:48;;;;;;;;;;;21.70;58.80;;;;;;10399916;28;19940;-46
2023/09/22 14:22:51;;;;;;;;;;;21.70;58.70;;;;;;10406411;28;20024;-46
2023/09/22 14:27:53;;;;;;;;;;;21.70;58.90;;;;;;10412725;28;19939;-45
2023/09/22 14:32:56;;;;;;;;;;;21.60;58.70;;;;;;10402915;28;19933;-44
2023/09/22 14:37:58;;;;;;;;;;;21.70;58.70;;;;;;10383881;28;19944;-46
2023/09/22 14:43:00;;;;;;;;;;;21.70;58.60;;;;;;10391825;28;20414;-44
2023/09/22 14:48:04;;;;;;;;;;;21.60;58.40;;;;;;10394806;28;19933;-43
2023/09/22 14:53:06;;;;;;;;;;;21.70;58.50;;;;;;10390223;28;20075;-47
2023/09/22 14:58:08;;;;;;;;;;;21.70;58.30;;;;;;10370349;28;20305;-45
2023/09/22 15:03:10;;;;;;;;;;;21.60;58.30;;;;;;10380572;28;19933;-44
2023/09/22 15:08:12;;;;;;;;;;;21.60;58.00;;;;;;10395293;28;20526;-43
2023/09/22 15:13:15;;;;;;;;;;;21.60;58.00;;;;;;10398258;28;19941;-42
2023/09/22 15:18:18;;;;;;;;;;;21.60;58.00;;;;;;10404851;28;20741;-42
2023/09/22 15:23:19;;;;;;;;;;;21.60;57.80;;;;;;10391218;28;19940;-42
2023/09/22 15:28:21;;;;;;;;;;;21.60;57.70;;;;;;10412410;28;20400;-43
2023/09/22 15:33:23;;;;;;;;;;;21.50;57.30;;;;;;10400063;28;20127;-43
2023/09/22 15:38:25;;;;;;;;;;;21.50;58.50;;;;;;10387209;28;19941;-43
2023/09/22 15:43:27;;;;;;;;;;;21.50;59.30;;;;;;10391644;28;20404;-46
2023/09/22 15:48:29;;;;;;;;;;;21.60;59.30;;;;;;10392311;28;20356;-43
2023/09/22 15:53:33;;;;;;;;;;;21.70;59.00;;;;;;10393205;28;19945;-42
2023/09/22 15:58:35;;;;;;;;;;;22.20;58.30;;;;;;10395847;28;20403;-47
2023/09/22 16:03:41;;;;;;;;;;;22.30;59.10;;;;;;10384373;28;19933;-48
2023/09/22 16:08:43;;;;;;;;;;;22.80;58.70;;;;;;10383351;28;19973;-46
2023/09/22 16:13:46;;;;;;;;;;;22.80;58.10;;;;;;10401098;28;19937;-43
2023/09/22 16:18:48;;;;;;;;;;;22.70;58.20;;;;;;10382014;28;19933;-44
2023/09/22 16:23:50;;;;;;;;;;;22.50;58.30;;;;;;10387215;28;20024;-46
2023/09/22 16:28:53;;;;;;;;;;;22.50;58.50;;;;;;10383714;28;19937;-47
2023/09/22 16:33:55;;;;;;;;;;;22.40;58.50;;;;;;10402389;28;19933;-43
2023/09/22 16:38:57;;;;;;;;;;;22.30;58.70;;;;;;10393224;28;19933;-43
2023/09/22 16:43:59;;;;;;;;;;;22.20;58.70;;;;;;10390458;28;19941;-43
2023/09/22 16:49:00;;;;;;;;;;;22.20;58.60;;;;;;10389533;28;20420;-44
2023/09/22 16:54:03;;;;;;;;;;;22.10;58.40;;;;;;10392496;28;20281;-45
2023/09/22 16:59:04;;;;;;;;;;;22.10;58.40;;;;;;10400442;28;20015;-44
2023/09/22 17:04:07;;;;;;;;;;;22.00;58.20;;;;;;10391519;28;19937;-47
2023/09/22 17:09:09;;;;;;;;;;;21.90;58.10;;;;;;10391115;28;20018;-45
2023/09/22 17:14:11;;;;;;;;;;;21.90;58.20;;;;;;10389171;28;19933;-47
2023/09/22 17:19:15;;;;;;;;;;;21.90;58.20;;;;;;10392633;28;20060;-46
2023/09/22 17:24:19;;;;;;;;;;;21.90;57.90;;;;;;10390466;28;19933;-47
2023/09/22 17:29:22;;;;;;;;;;;21.80;57.80;;;;;;10389422;28;20016;-45
2023/09/22 17:34:25;;;;;;;;;;;21.80;57.70;;;;;;10390241;28;19934;-46
2023/09/22 17:39:27;;;;;;;;;;;21.80;57.60;;;;;;10379275;28;20331;-47
2023/09/22 17:44:29;;;;;;;;;;;21.80;57.60;;;;;;10379675;28;20862;-43
2023/09/22 17:49:30;;;;;;;;;;;21.80;57.30;;;;;;10388344;28;19933;-46
2023/09/22 17:54:32;;;;;;;;;;;21.80;57.30;;;;;;10395263;28;19966;-46
2023/09/22 17:59:34;;;;;;;;;;;21.70;57.10;;;;;;10408586;28;20247;-44
2023/09/22 18:04:36;;;;;;;;;;;21.80;57.10;;;;;;10393829;28;19940;-44
2023/09/22 18:09:38;;;;;;;;;;;21.70;57.00;;;;;;10397098;28;19934;-44
2023/09/22 18:14:41;;;;;;;;;;;21.70;57.10;;;;;;10396452;28;20237;-44
2023/09/22 18:19:42;;;;;;;;;;;21.70;56.90;;;;;;10407445;28;19933;-43
2023/09/22 18:24:44;;;;;;;;;;;21.70;56.80;;;;;;10397366;28;20286;-45
2023/09/22 18:29:46;;;;;;;;;;;21.70;56.70;;;;;;10396364;28;19976;-45
2023/09/22 18:34:51;;;;;;;;;;;21.70;56.80;;;;;;10396547;28;20456;-46
2023/09/22 18:39:53;;;;;;;;;;;21.70;56.70;;;;;;10395894;28;19940;-42
2023/09/22 18:44:54;;;;;;;;;;;21.70;56.70;;;;;;10408411;28;19934;-45
2023/09/22 18:49:56;;;;;;;;;;;21.70;56.60;;;;;;10395725;28;19934;-44
2023/09/22 18:54:58;;;;;;;;;;;21.70;56.50;;;;;;10394185;28;19933;-44
2023/09/22 19:00:00;;;;;;;;;;;21.70;56.30;;;;;;10393835;28;20288;-44
2023/09/22 19:05:02;;;;;;;;;;;21.70;56.30;;;;;;10404799;28;19937;-43
2023/09/22 19:10:04;;;;;;;;;;;21.60;56.20;;;;;;10392570;28;20312;-55
2023/09/22 19:15:06;;;;;;;;;;;21.60;56.50;;;;;;10388906;28;19940;-51
2023/09/22 19:20:08;;;;;;;;;;;21.60;57.80;;;;;;10389830;28;20039;-54
2023/09/22 19:25:11;;;;;;;;;;;21.60;58.10;;;;;;10378313;28;20352;-53
2023/09/22 19:30:13;;;;;;;;;;;21.60;57.90;;;;;;10392915;28;19958;-55
2023/09/22 19:35:17;;;;;;;;;;;21.60;57.80;;;;;;10380324;28;19934;-54
2023/09/22 19:40:19;;;;;;;;;;;21.60;58.10;;;;;;10391123;28;20403;-55
2023/09/22 19:45:20;;;;;;;;;;;21.60;58.30;;;;;;10385305;28;19982;-55
2023/09/22 19:50:22;;;;;;;;;;;21.60;58.60;;;;;;10383422;28;19940;-60
2023/09/22 19:55:24;;;;;;;;;;;21.60;58.80;;;;;;10388397;28;20048;-55
2023/09/22 20:00:26;;;;;;;;;;;21.60;58.90;;;;;;10398156;28;20395;-55
2023/09/22 20:05:28;;;;;;;;;;;21.50;59.00;;;;;;10387356;28;19933;-54
2023/09/22 20:10:32;;;;;;;;;;;21.50;59.30;;;;;;10391599;28;19933;-55
2023/09/22 20:15:34;;;;;;;;;;;21.50;59.50;;;;;;10385067;28;19972;-52
2023/09/22 20:20:35;;;;;;;;;;;21.60;61.40;;;;;;10402543;28;19933;-53
2023/09/22 20:25:37;;;;;;;;;;;21.70;61.40;;;;;;10391276;28;20031;-63
2023/09/22 20:30:40;;;;;;;;;;;21.70;61.70;;;;;;10387015;28;20341;-54
2023/09/22 20:35:42;;;;;;;;;;;21.60;61.80;;;;;;10396364;28;19940;-55
2023/09/22 20:40:47;;;;;;;;;;;21.60;61.90;;;;;;10389136;28;19956;-56
2023/09/22 20:45:49;;;;;;;;;;;21.60;61.70;;;;;;10379205;28;19933;-56
2023/09/22 20:50:51;;;;;;;;;;;21.50;61.50;;;;;;10395600;28;19933;-56
2023/09/22 20:55:53;;;;;;;;;;;21.50;61.50;;;;;;10402089;28;19934;-56
2023/09/22 21:00:59;;;;;;;;;;;21.40;61.60;;;;;;10397673;28;19933;-56
2023/09/22 21:06:02;;;;;;;;;;;21.40;61.50;;;;;;10376826;28;19934;-56
2023/09/22 21:11:04;;;;;;;;;;;21.40;61.60;;;;;;10390303;28;19941;-56
2023/09/22 21:16:06;;;;;;;;;;;21.30;61.60;;;;;;10385125;28;19933;-56
2023/09/22 21:21:08;;;;;;;;;;;21.30;61.60;;;;;;10390475;28;20024;-56
2023/09/22 21:26:10;;;;;;;;;;;21.30;61.70;;;;;;10397438;28;20397;-56
2023/09/22 21:31:12;;;;;;;;;;;21.30;61.60;;;;;;10386654;28;20312;-56
2023/09/22 21:36:14;;;;;;;;;;;21.30;61.20;;;;;;10389389;28;19934;-55
2023/09/22 21:41:16;;;;;;;;;;;21.30;60.80;;;;;;10390522;28;19940;-55
2023/09/22 21:46:19;;;;;;;;;;;21.20;60.50;;;;;;10391084;28;19933;-56
2023/09/22 21:51:22;;;;;;;;;;;21.30;60.20;;;;;;10388307;28;20305;-56
2023/09/22 21:56:25;;;;;;;;;;;21.20;59.90;;;;;;10391069;28;19940;-55
2023/09/22 22:01:31;;;;;;;;;;;21.20;59.60;;;;;;10392477;28;19940;-55
2023/09/22 22:06:42;;;;;;;;;;;21.30;59.40;;;;;;10388862;28;19934;-56
2023/09/22 22:11:45;;;;;;;;;;;21.30;59.30;;;;;;10378254;28;19980;-55
2023/09/22 22:16:49;;;;;;;;;;;21.30;58.90;;;;;;10388246;28;20403;-55
2023/09/22 22:21:52;;;;;;;;;;;21.30;58.70;;;;;;10388599;28;20316;-55
2023/09/22 22:27:00;;;;;;;;;;;21.30;58.70;;;;;;10401153;28;20004;-55
2023/09/22 22:32:02;;;;;;;;;;;21.30;58.40;;;;;;10388683;28;19933;-55
2023/09/22 22:37:05;;;;;;;;;;;21.30;58.30;;;;;;10388501;28;20316;-56
2023/09/22 22:42:09;;;;;;;;;;;21.30;58.10;;;;;;10393493;28;20610;-55
2023/09/22 22:47:11;;;;;;;;;;;21.30;58.30;;;;;;10382359;28;20032;-56
2023/09/22 22:52:15;;;;;;;;;;;21.30;57.90;;;;;;10395908;28;19933;-55
2023/09/22 22:57:18;;;;;;;;;;;21.30;57.80;;;;;;10402709;28;20273;-56
2023/09/22 23:02:21;;;;;;;;;;;21.30;57.80;;;;;;10393433;28;19945;-56
2023/09/22 23:07:24;;;;;;;;;;;21.30;57.70;;;;;;10394540;28;19934;-55
2023/09/22 23:12:28;;;;;;;;;;;21.30;57.70;;;;;;10394900;28;20024;-55
2023/09/22 23:17:32;;;;;;;;;;;21.30;57.80;;;;;;10395683;28;20149;-55
2023/09/22 23:22:37;;;;;;;;;;;21.30;57.40;;;;;;10394808;28;20410;-54
2023/09/22 23:27:40;;;;;;;;;;;21.30;57.60;;;;;;10401456;28;20525;-56
2023/09/22 23:32:42;;;;;;;;;;;21.30;57.10;;;;;;10394179;28;20312;-56
2023/09/22 23:37:45;;;;;;;;;;;21.30;57.00;;;;;;10393493;28;20008;-59
2023/09/22 23:42:47;;;;;;;;;;;21.30;58.00;;;;;;10385707;28;20479;-56
2023/09/22 23:47:49;;;;;;;;;;;21.30;57.10;;;;;;10393379;28;20130;-70
2023/09/22 23:52:51;;;;;;;;;;;21.30;56.90;;;;;;10394323;28;20401;-56
2023/09/22 23:57:54;;;;;;;;;;;21.30;56.80;;;;;;10393375;28;20095;-55
